X  Fermer Données météorologiques d'aviation de Metar     LFOJ Orléans-Bricy (BA 123) Air Base
Température
19°C Température
17°C Point de rosée
88% Humidité



Vent
16 KM/H
10 MPH
4 M/S
9 KTS



180°
Sud
Conditions actuelles

Clair Clair
Pression 1009.92 (hPa) - 29.82 (inHg)
Visibilité 6.2 (mile) - 10 (km)
Aéroport
Code de l'aéroport LFOJ

Emplacement: Orléans-Bricy (BA 123) Air Base
Distance: 112 (km)

Metar:
LFOJ 170630Z AUTO 18009KT CAVOK 19/17 Q1010 BECMG BKN014

Temps: 17-06-2021 08:30 CEST